Time;durP1;ratioP1;P1;durP2;ratioP2;P2;SDS_P1;SDS_P2;PMS_P1;PMS_P2;Temp;Humidity;BMP_temperature;BMP_pressure;BME280_temperature;BME280_humidity;BME280_pressure;Samples;Min_cycle;Max_cycle;Signal;HPM_P1;HPM_P2
2022/08/19 00:01:31;;;;;;;14.67;12.07;;;;;;;24.98;50.52;97023.31;5024018;28;20196;-69
2022/08/19 00:04:02;;;;;;;15.27;13.00;;;;;;;24.96;50.83;97020.06;5032410;28;20425;-69
2022/08/19 00:06:28;;;;;;;13.43;12.10;;;;;;;24.96;50.45;97014.69;5019879;28;20429;-71
2022/08/19 00:08:55;;;;;;;14.50;12.27;;;;;;;24.93;50.86;97017.06;5032366;28;20426;-70
2022/08/19 00:11:20;;;;;;;14.30;12.93;;;;;;;24.89;50.94;97008.72;5031713;28;20426;-70
2022/08/19 00:13:48;;;;;;;13.93;12.53;;;;;;;24.88;50.84;97020.50;5022515;28;20435;-70
2022/08/19 00:16:14;;;;;;;13.47;12.10;;;;;;;24.82;50.93;97026.88;5016626;28;20198;-72
2022/08/19 00:18:40;;;;;;;13.43;12.13;;;;;;;24.81;51.00;97022.56;5032494;28;20544;-70
2022/08/19 00:21:09;;;;;;;13.97;12.67;;;;;;;24.83;51.14;97028.47;5031405;28;20533;-71
2022/08/19 00:23:36;;;;;;;14.20;12.73;;;;;;;24.84;51.10;97022.06;5045121;28;20278;-70
2022/08/19 00:26:05;;;;;;;13.93;12.53;;;;;;;24.81;51.25;97022.56;5035490;28;20431;-70
2022/08/19 00:28:31;;;;;;;14.63;12.87;;;;;;;24.81;51.40;97019.91;5025211;28;20422;-70
2022/08/19 00:30:57;;;;;;;13.97;12.57;;;;;;;24.80;51.36;97019.06;5016509;28;20436;-73
2022/08/19 00:33:22;;;;;;;14.40;12.97;;;;;;;24.77;51.41;97013.41;5026842;28;20443;-70
2022/08/19 00:35:48;;;;;;;17.07;13.63;;;;;;;24.76;51.13;97009.91;5039134;28;20188;-70
2022/08/19 00:38:13;;;;;;;14.23;12.80;;;;;;;24.76;51.32;96998.38;5016373;28;20208;-71
2022/08/19 00:40:39;;;;;;;14.07;12.73;;;;;;;24.75;51.08;96996.75;5025944;28;20185;-70
2022/08/19 00:43:09;;;;;;;14.10;12.60;;;;;;;24.75;51.43;96991.41;5028626;28;20204;-70
2022/08/19 00:45:36;;;;;;;14.83;13.00;;;;;;;24.75;51.53;96991.41;5038382;28;20194;-71
2022/08/19 00:48:04;;;;;;;14.23;12.83;;;;;;;24.71;51.40;96998.31;5015452;28;20423;-69
2022/08/19 00:50:30;;;;;;;13.87;12.40;;;;;;;24.66;51.68;96994.50;5032996;28;20461;-69
2022/08/19 00:52:56;;;;;;;15.87;13.57;;;;;;;24.65;51.83;97000.91;5022986;28;20447;-69
2022/08/19 00:55:25;;;;;;;13.80;12.40;;;;;;;24.63;51.79;97010.25;5017660;28;20982;-69
2022/08/19 00:57:57;;;;;;;17.60;12.53;;;;;;;24.64;51.67;97001.97;5031064;28;20211;-69
2022/08/19 01:00:25;;;;;;;18.10;13.60;;;;;;;24.59;51.69;97012.59;5020172;28;20474;-68
2022/08/19 01:02:52;;;;;;;17.00;14.03;;;;;;;24.61;51.81;97010.47;5037504;28;20862;-70
2022/08/19 01:05:20;;;;;;;18.53;14.40;;;;;;;24.56;52.24;97010.44;5025992;28;20523;-70
2022/08/19 01:07:47;;;;;;;15.43;13.83;;;;;;;24.55;52.40;97008.81;5020583;28;20432;-70
2022/08/19 01:10:18;;;;;;;16.00;13.60;;;;;;;24.51;52.35;97008.47;5021324;28;20427;-71
2022/08/19 01:12:45;;;;;;;16.27;13.83;;;;;;;24.58;51.85;97018.22;5019945;28;20501;-70
2022/08/19 01:15:14;;;;;;;15.67;13.97;;;;;;;24.60;52.27;97002.72;5022873;28;20798;-69
2022/08/19 01:17:41;;;;;;;15.47;13.77;;;;;;;24.58;52.41;97002.94;5016568;28;20827;-70
2022/08/19 01:20:10;;;;;;;15.30;13.70;;;;;;;24.59;52.08;96999.19;5015564;28;20842;-70
2022/08/19 01:22:44;;;;;;;15.33;13.83;;;;;;;24.56;52.46;96997.03;5015179;28;20443;-70
2022/08/19 01:25:10;;;;;;;15.87;13.30;;;;;;;24.56;52.35;97004.25;5023515;28;20462;-70
2022/08/19 01:27:40;;;;;;;15.77;13.40;;;;;;;24.52;52.55;96999.38;5017577;28;20460;-70
2022/08/19 01:30:07;;;;;;;15.23;13.63;;;;;;;24.52;52.60;97007.41;5027297;28;20190;-70
2022/08/19 01:32:32;;;;;;;17.07;15.03;;;;;;;24.47;52.59;96998.50;5032422;28;20452;-70
2022/08/19 01:35:02;;;;;;;20.17;14.93;;;;;;;24.43;52.52;96995.50;5021939;28;20879;-70
2022/08/19 01:37:28;;;;;;;18.27;15.23;;;;;;;24.43;52.88;96992.03;4978829;28;1119760;-70
2022/08/19 01:39:54;;;;;;;19.67;14.97;;;;;;;24.46;52.85;96994.19;5034653;28;20579;-70
2022/08/19 01:42:19;;;;;;;15.90;12.43;;;;;;;24.47;52.79;96987.78;5025205;28;20502;-70
2022/08/19 01:44:45;;;;;;;16.07;14.37;;;;;;;24.46;52.77;96988.84;5036686;28;20191;-70
2022/08/19 01:47:10;;;;;;;15.53;13.90;;;;;;;24.46;52.56;96996.88;5018702;28;20192;-70
2022/08/19 01:49:37;;;;;;;17.70;13.80;;;;;;;24.44;52.51;96989.09;5013414;28;20188;-70
2022/08/19 01:52:03;;;;;;;17.00;13.90;;;;;;;24.40;52.88;96985.28;5021602;28;20208;-70
2022/08/19 01:54:28;;;;;;;19.03;14.17;;;;;;;24.42;52.96;96988.53;5019402;28;20511;-71
2022/08/19 01:56:58;;;;;;;18.13;13.77;;;;;;;24.42;52.92;96985.06;5026357;28;20454;-70
2022/08/19 01:59:24;;;;;;;18.03;14.60;;;;;;;24.37;52.95;96991.97;5021583;28;20195;-69
2022/08/19 02:01:49;;;;;;;15.50;13.90;;;;;;;24.39;52.55;97000.56;5033745;28;20442;-70
2022/08/19 02:04:15;;;;;;;20.33;14.63;;;;;;;24.38;53.05;96998.94;5028675;28;20279;-70
2022/08/19 02:06:41;;;;;;;17.70;14.50;;;;;;;24.39;52.56;97002.41;5033595;28;20183;-70
2022/08/19 02:09:08;;;;;;;16.50;14.80;;;;;;;24.39;52.96;97002.41;5024724;28;20181;-70
2022/08/19 02:11:35;;;;;;;18.20;13.70;;;;;;;24.38;53.02;97009.66;5008344;28;20182;-70
2022/08/19 02:14:05;;;;;;;17.83;14.40;;;;;;;24.34;52.75;96992.44;5031254;28;20922;-70
2022/08/19 02:16:32;;;;;;;16.70;14.70;;;;;;;24.36;52.80;96990.34;5020972;28;20453;-69
2022/08/19 02:19:00;;;;;;;17.53;14.87;;;;;;;24.34;52.88;96987.09;5037210;28;20551;-70
2022/08/19 02:21:26;;;;;;;20.27;15.23;;;;;;;24.30;53.04;96990.50;5024055;28;20438;-71
2022/08/19 02:23:51;;;;;;;20.80;15.40;;;;;;;24.27;53.35;96994.50;5037915;28;21090;-70
2022/08/19 02:26:17;;;;;;;18.30;15.50;;;;;;;24.27;53.36;96996.34;5046083;28;20677;-70
2022/08/19 02:28:43;;;;;;;18.97;15.97;;;;;;;24.29;53.18;97005.78;5040483;28;20683;-70
2022/08/19 02:31:14;;;;;;;17.57;15.20;;;;;;;24.28;53.09;97004.16;5046108;28;20566;-71
2022/08/19 02:33:40;;;;;;;21.77;16.17;;;;;;;24.23;53.45;97002.22;5044056;28;20283;-70
2022/08/19 02:36:07;;;;;;;17.90;14.97;;;;;;;24.24;53.35;97000.34;5038102;28;20579;-70
2022/08/19 02:38:33;;;;;;;17.83;15.60;;;;;;;24.25;53.56;96996.59;5044018;28;20249;-70
2022/08/19 02:41:04;;;;;;;19.10;16.30;;;;;;;24.23;53.35;97004.91;5042711;28;20439;-70
2022/08/19 02:43:31;;;;;;;18.47;15.87;;;;;;;24.26;53.41;96997.44;5038790;28;20202;-70
2022/08/19 02:45:56;;;;;;;22.40;16.50;;;;;;;24.30;53.37;96990.50;5037187;28;20429;-69
2022/08/19 02:48:24;;;;;;;19.03;17.03;;;;;;;24.31;53.37;96998.31;5033533;28;20426;-70
2022/08/19 02:50:54;;;;;;;21.97;16.20;;;;;;;24.27;53.44;96999.84;5038177;28;20196;-69
2022/08/19 02:53:22;;;;;;;20.53;16.20;;;;;;;24.30;53.15;96985.97;5042316;28;20454;-69
2022/08/19 02:55:48;;;;;;;17.70;15.90;;;;;;;24.30;53.53;96982.47;5047321;28;20418;-70
2022/08/19 02:58:14;;;;;;;19.00;16.13;;;;;;;24.31;53.25;96982.25;5042026;28;20506;-70
2022/08/19 03:00:48;;;;;;;20.60;17.27;;;;;;;24.33;53.17;96988.13;5051146;28;20513;-70
2022/08/19 03:03:15;;;;;;;17.40;15.60;;;;;;;24.30;53.02;96979.81;5008338;28;20460;-71
2022/08/19 03:05:41;;;;;;;23.47;17.73;;;;;;;24.24;53.17;96976.25;5052384;28;20421;-69
2022/08/19 03:08:10;;;;;;;21.13;18.00;;;;;;;24.21;53.23;96985.59;5030135;28;20434;-71
2022/08/19 03:10:44;;;;;;;18.53;16.40;;;;;;;24.19;53.50;96989.56;5022854;28;20441;-70
2022/08/19 03:13:16;;;;;;;18.87;16.50;;;;;;;24.22;53.41;96999.75;5032624;28;20453;-70
2022/08/19 03:15:44;;;;;;;20.37;18.00;;;;;;;24.20;53.76;97005.38;5035389;28;20528;-70
2022/08/19 03:18:09;;;;;;;18.73;16.37;;;;;;;24.18;53.46;97006.69;5032628;28;20459;-71
2022/08/19 03:20:40;;;;;;;22.77;18.00;;;;;;;24.20;53.80;97013.41;5036165;28;20781;-71
2022/08/19 03:23:06;;;;;;;22.37;17.50;;;;;;;24.16;53.86;97012.25;5032936;28;20230;-69
2022/08/19 03:25:37;;;;;;;19.40;17.27;;;;;;;24.16;53.83;97001.56;5026016;28;20427;-71
2022/08/19 03:28:02;;;;;;;18.47;16.47;;;;;;;24.15;54.07;97004.50;5039854;28;20548;-71
2022/08/19 03:30:28;;;;;;;20.53;17.53;;;;;;;24.16;54.16;96995.41;5030903;28;20415;-70
2022/08/19 03:32:53;;;;;;;19.70;17.63;;;;;;;24.13;54.04;96990.53;5028540;28;20204;-69
2022/08/19 03:35:20;;;;;;;21.03;18.00;;;;;;;24.11;54.26;96995.31;5030276;28;20710;-69
2022/08/19 03:37:45;;;;;;;22.10;18.30;;;;;;;24.12;53.98;97002.28;5029415;28;20299;-68
2022/08/19 03:40:10;;;;;;;20.60;17.97;;;;;;;24.13;54.05;97002.03;5026708;28;20423;-69
2022/08/19 03:42:36;;;;;;;20.63;18.13;;;;;;;24.12;54.12;97005.81;5034372;28;20203;-69
2022/08/19 03:45:02;;;;;;;24.63;17.40;;;;;;;24.07;54.35;96998.47;5038211;28;20210;-69
2022/08/19 03:47:27;;;;;;;21.23;18.50;;;;;;;24.07;54.25;96998.47;5030712;28;20183;-69
2022/08/19 03:49:53;;;;;;;21.43;18.23;;;;;;;24.04;54.18;96993.63;5027419;28;20597;-70
2022/08/19 03:52:19;;;;;;;20.03;17.90;;;;;;;24.05;54.40;96995.25;5029798;28;20235;-69
2022/08/19 03:54:44;;;;;;;20.53;18.33;;;;;;;24.06;53.92;96999.56;5031855;28;20564;-69
2022/08/19 03:57:10;;;;;;;20.00;17.17;;;;;;;24.06;54.04;97002.25;5030345;28;20179;-69
2022/08/19 03:59:37;;;;;;;23.03;18.80;;;;;;;24.06;53.87;97009.44;5031381;28;20218;-69
2022/08/19 04:02:09;;;;;;;20.10;18.03;;;;;;;24.04;54.16;97007.03;5031595;28;20442;-69
2022/08/19 04:04:35;;;;;;;20.90;18.27;;;;;;;24.05;53.95;97005.97;5030171;28;20430;-69
2022/08/19 04:07:01;;;;;;;23.57;18.83;;;;;;;24.04;54.22;97009.69;5029574;28;20437;-69
2022/08/19 04:09:26;;;;;;;22.17;19.40;;;;;;;24.00;54.31;97011.22;5024007;28;20438;-69
2022/08/19 04:11:54;;;;;;;22.70;19.00;;;;;;;24.00;54.40;97013.09;5033544;28;20831;-71
2022/08/19 04:14:23;;;;;;;22.00;17.73;;;;;;;23.95;54.54;97012.97;5030842;28;20282;-69
2022/08/19 04:16:49;;;;;;;20.50;18.40;;;;;;;23.93;54.54;97016.72;5028435;28;20466;-69
2022/08/19 04:19:16;;;;;;;24.87;19.90;;;;;;;23.93;54.20;97015.91;5030745;28;20891;-70
2022/08/19 04:21:44;;;;;;;22.23;19.83;;;;;;;23.91;54.55;97015.34;5036897;28;20265;-70
2022/08/19 04:24:10;;;;;;;24.37;19.87;;;;;;;23.91;54.61;97009.97;5026961;28;20568;-71
2022/08/19 04:26:37;;;;;;;24.80;18.40;;;;;;;23.94;54.53;97012.19;5030605;28;20521;-70
2022/08/19 04:29:07;;;;;;;21.63;19.20;;;;;;;23.93;54.39;97010.56;5026200;28;20656;-71
2022/08/19 04:31:35;;;;;;;24.93;18.33;;;;;;;23.89;54.51;97007.53;5024070;28;20476;-70
2022/08/19 04:34:04;;;;;;;24.00;20.10;;;;;;;23.90;54.49;97005.69;5027144;28;20427;-70
2022/08/19 04:36:32;;;;;;;24.03;20.00;;;;;;;23.92;54.48;97000.91;5030260;28;20426;-70
2022/08/19 04:39:00;;;;;;;25.80;21.43;;;;;;;23.93;54.09;97003.31;5023244;28;20510;-70
2022/08/19 04:44:11;;;;;;;23.40;20.30;;;;;;;23.95;54.34;97005.75;5030279;28;20433;-70
2022/08/19 04:46:36;;;;;;;24.40;19.67;;;;;;;23.93;54.43;97013.22;5040227;28;20945;-73
2022/08/19 04:49:04;;;;;;;22.57;20.17;;;;;;;23.90;54.38;97019.06;5026611;28;20465;-71
2022/08/19 04:51:31;;;;;;;30.43;20.33;;;;;;;23.88;54.36;97008.59;5029695;28;20188;-70
2022/08/19 04:53:57;;;;;;;23.50;20.73;;;;;;;23.85;54.39;97010.94;5029350;28;20435;-70
2022/08/19 04:56:22;;;;;;;24.00;20.63;;;;;;;23.85;54.60;97010.94;5028628;28;20942;-70
2022/08/19 04:58:50;;;;;;;25.40;20.00;;;;;;;23.84;54.58;97009.31;5030531;28;20492;-70
2022/08/19 05:01:31;;;;;;;24.87;19.77;;;;;;;23.83;54.54;97013.03;5030279;28;20643;-70
2022/08/19 05:03:58;;;;;;;26.63;20.07;;;;;;;23.85;54.65;97009.09;5030172;28;20430;-70
2022/08/19 05:06:25;;;;;;;26.17;19.80;;;;;;;23.88;54.61;97013.13;5029057;28;20433;-70
2022/08/19 05:08:50;;;;;;;22.97;20.47;;;;;;;23.85;54.67;97021.66;5021210;28;20445;-69
2022/08/19 05:11:19;;;;;;;20.53;18.13;;;;;;;23.87;54.49;97024.91;5032597;28;20427;-69
2022/08/19 05:13:46;;;;;;;23.37;18.83;;;;;;;23.86;54.65;97026.78;5029380;28;20196;-69
2022/08/19 05:16:12;;;;;;;23.30;20.47;;;;;;;23.86;54.89;97039.31;5025506;28;20454;-70
2022/08/19 05:24:10;;;;;;;22.70;20.23;;;;;;;23.85;54.96;97056.44;5027516;28;20426;-69
2022/08/19 05:26:40;;;;;;;27.20;20.93;;;;;;;23.87;55.00;97070.38;5034237;28;20417;-69
2022/08/19 05:29:07;;;;;;;22.50;18.73;;;;;;;23.91;54.83;97090.25;5030553;28;20418;-69
2022/08/19 05:31:33;;;;;;;26.10;21.20;;;;;;;23.94;54.44;97092.47;5030614;28;20426;-69
2022/08/19 05:33:59;;;;;;;23.93;20.47;;;;;;;23.94;54.81;97100.47;5030213;28;20438;-69
2022/08/19 05:36:28;;;;;;;22.03;19.70;;;;;;;23.98;54.64;97100.84;5029425;28;20453;-69
2022/08/19 05:38:54;;;;;;;20.03;17.83;;;;;;;23.99;54.38;97113.97;5007254;28;20258;-70
2022/08/19 05:41:23;;;;;;;21.73;18.83;;;;;;;23.96;54.39;97098.38;5024450;28;20436;-70
2022/08/19 05:43:50;;;;;;;21.47;19.17;;;;;;;23.96;54.42;97095.72;5019957;28;20199;-69
2022/08/19 05:46:18;;;;;;;21.40;18.97;;;;;;;23.99;54.61;97097.13;5025849;28;20517;-70
2022/08/19 05:48:44;;;;;;;20.23;18.10;;;;;;;24.02;54.51;97099.28;5019800;28;20478;-68
2022/08/19 05:51:10;;;;;;;20.33;18.20;;;;;;;24.05;54.32;97102.31;5022149;28;20947;-69
2022/08/19 05:53:36;;;;;;;23.67;18.90;;;;;;;24.05;54.13;97096.97;5013932;28;20313;-68
2022/08/19 05:56:07;;;;;;;23.53;19.50;;;;;;;24.05;54.30;97102.31;5019321;28;20458;-68
2022/08/19 05:58:33;;;;;;;26.80;19.83;;;;;;;24.04;54.43;97098.00;5014781;28;20207;-68
2022/08/19 06:01:04;;;;;;;22.57;18.90;;;;;;;24.04;54.44;97098.00;5026020;28;20797;-68
2022/08/19 06:03:30;;;;;;;20.63;18.43;;;;;;;24.04;54.68;97092.66;5019467;28;20445;-70
2022/08/19 06:05:56;;;;;;;22.27;17.70;;;;;;;24.05;54.97;97096.97;5026559;28;20430;-69
2022/08/19 06:08:21;;;;;;;23.67;19.27;;;;;;;24.04;54.50;97108.72;5021524;28;20443;-70
2022/08/19 06:10:47;;;;;;;24.70;18.47;;;;;;;24.05;55.14;97105.00;5022173;28;20604;-69
2022/08/19 06:13:12;;;;;;;21.43;18.10;;;;;;;24.08;54.56;97107.16;5026653;28;20279;-68
2022/08/19 06:15:38;;;;;;;20.27;17.83;;;;;;;24.07;54.44;97108.22;5029134;28;20643;-69
2022/08/19 06:18:03;;;;;;;26.50;18.60;;;;;;;24.08;54.53;97104.47;5019035;28;20279;-69
2022/08/19 06:20:29;;;;;;;23.57;19.20;;;;;;;24.11;54.59;97105.88;5019215;28;20207;-72
2022/08/19 06:22:54;;;;;;;21.20;18.10;;;;;;;24.15;54.49;97095.50;5013676;28;20598;-69
2022/08/19 06:25:20;;;;;;;19.93;17.83;;;;;;;24.22;54.49;97093.47;5016346;28;21690;-70
2022/08/19 06:27:45;;;;;;;20.60;18.40;;;;;;;24.27;54.09;97093.56;5023199;28;20199;-70
2022/08/19 06:30:12;;;;;;;20.10;17.77;;;;;;;24.31;53.99;97099.22;5020839;28;20675;-69
2022/08/19 06:32:37;;;;;;;19.97;17.87;;;;;;;24.27;54.06;97101.59;5027016;28;20208;-70
2022/08/19 06:35:04;;;;;;;25.73;19.17;;;;;;;24.30;54.14;97102.97;5023621;28;20430;-71
2022/08/19 06:37:29;;;;;;;19.27;17.10;;;;;;;24.30;53.75;97102.97;5016372;28;20216;-70
2022/08/19 06:39:55;;;;;;;21.07;16.90;;;;;;;24.35;53.84;97100.38;5027421;28;20453;-71
2022/08/19 06:42:20;;;;;;;22.07;18.10;;;;;;;24.39;53.98;97106.84;5024618;28;20206;-70
2022/08/19 06:44:48;;;;;;;19.90;17.50;;;;;;;24.41;53.46;97103.94;5030224;28;20187;-69
2022/08/19 06:47:18;;;;;;;20.57;18.37;;;;;;;24.42;53.46;97110.91;5025898;28;20223;-71
2022/08/19 06:49:44;;;;;;;20.73;17.73;;;;;;;24.44;53.55;97108.81;5026973;28;20418;-70
2022/08/19 06:52:14;;;;;;;20.10;18.00;;;;;;;24.42;53.62;97114.41;5022323;28;20450;-70
2022/08/19 06:54:41;;;;;;;20.47;17.60;;;;;;;24.42;54.19;97116.28;5016226;28;20196;-71
2022/08/19 06:57:08;;;;;;;19.83;17.73;;;;;;;24.39;54.26;97118.38;5025075;28;20520;-71
2022/08/19 06:59:34;;;;;;;27.43;18.40;;;;;;;24.33;54.57;97108.63;5022735;28;20422;-71
2022/08/19 07:02:05;;;;;;;23.60;17.43;;;;;;;24.36;54.50;97113.50;5024065;28;20438;-69
2022/08/19 07:04:32;;;;;;;21.80;18.83;;;;;;;24.48;53.91;97109.94;5015333;28;20171;-69
2022/08/19 07:07:07;;;;;;;19.43;17.30;;;;;;;24.49;54.49;97125.78;5032051;28;20966;-70
2022/08/19 07:09:34;;;;;;;21.43;17.80;;;;;;;24.59;54.15;97121.63;5024488;28;20903;-69
2022/08/19 07:12:00;;;;;;;23.43;18.60;;;;;;;24.53;54.57;97118.06;5024884;28;20504;-69
2022/08/19 07:14:27;;;;;;;24.10;19.20;;;;;;;24.47;54.81;97121.69;5032915;28;20771;-70
2022/08/19 07:16:55;;;;;;;32.10;19.60;;;;;;;24.40;55.39;97121.84;5020067;28;21042;-69
2022/08/19 07:19:22;;;;;;;21.17;18.43;;;;;;;24.31;55.59;97120.66;5015721;28;20454;-69
2022/08/19 07:21:50;;;;;;;19.43;17.43;;;;;;;24.26;55.61;97134.75;5019702;28;20536;-71
2022/08/19 07:24:16;;;;;;;25.30;20.30;;;;;;;24.22;55.54;97125.59;5017925;28;20434;-69
2022/08/19 07:26:43;;;;;;;23.63;19.00;;;;;;;24.19;55.64;97123.41;5024875;28;20430;-69
2022/08/19 07:29:09;;;;;;;20.83;18.63;;;;;;;24.19;56.13;97131.44;5016611;28;20435;-69
2022/08/19 07:31:36;;;;;;;19.80;16.73;;;;;;;24.15;56.22;97122.28;5030114;28;20422;-70
2022/08/19 07:34:06;;;;;;;24.73;17.63;;;;;;;24.12;56.24;97125.41;5023840;28;20537;-68
2022/08/19 07:36:32;;;;;;;24.80;19.33;;;;;;;24.13;56.05;97135.06;5014460;28;20443;-69
2022/08/19 07:39:00;;;;;;;20.80;18.20;;;;;;;24.12;56.48;97133.44;5020524;28;20877;-68
2022/08/19 07:41:28;;;;;;;22.80;17.97;;;;;;;24.10;56.49;97136.38;5026782;28;20525;-69
2022/08/19 07:43:54;;;;;;;22.10;18.50;;;;;;;24.13;56.61;97129.72;5021940;28;21012;-69
2022/08/19 07:46:20;;;;;;;22.83;18.30;;;;;;;24.13;56.70;97129.72;5021367;28;20432;-70
2022/08/19 07:48:46;;;;;;;21.63;18.73;;;;;;;24.13;56.58;97132.41;5023630;28;20421;-69
2022/08/19 07:51:13;;;;;;;19.40;17.17;;;;;;;24.11;56.30;97134.50;5030036;28;20191;-69
2022/08/19 07:53:39;;;;;;;23.20;18.20;;;;;;;24.08;56.33;97133.13;5031839;28;20438;-68
2022/08/19 07:56:05;;;;;;;22.60;17.20;;;;;;;24.08;56.61;97133.94;5040034;28;20791;-68
2022/08/19 07:58:34;;;;;;;21.10;18.70;;;;;;;24.09;56.53;97134.75;5034239;28;20666;-69
2022/08/19 08:01:00;;;;;;;23.50;19.00;;;;;;;24.09;56.47;97134.75;5036227;28;20468;-70
2022/08/19 08:09:15;;;;;;;21.40;17.30;;;;;;;24.13;56.21;97137.75;5030757;28;20831;-70
2022/08/19 08:11:48;;;;;;;19.40;17.30;;;;;;;24.10;56.22;97136.38;5023612;28;20439;-69
2022/08/19 08:14:41;;;;;;;18.83;15.97;;;;;;;24.11;56.34;97139.84;5031899;28;20798;-68
2022/08/19 08:17:08;;;;;;;25.40;17.50;;;;;;;24.09;56.20;97145.47;5028382;28;20431;-71
2022/08/19 08:19:34;;;;;;;19.73;16.50;;;;;;;24.15;56.02;97144.47;5024649;28;20437;-70
2022/08/19 08:22:01;;;;;;;21.20;16.93;;;;;;;24.11;55.88;97145.22;5014381;28;20537;-69
2022/08/19 08:24:28;;;;;;;20.50;18.33;;;;;;;24.02;55.75;97144.78;5030122;28;20195;-69
2022/08/19 08:26:54;;;;;;;23.83;16.97;;;;;;;23.99;55.94;97150.63;5029544;28;20506;-70
2022/08/19 08:29:20;;;;;;;21.73;17.73;;;;;;;23.96;55.72;97149.22;5029636;28;20552;-70
2022/08/19 08:31:46;;;;;;;20.50;17.60;;;;;;;23.88;56.01;97154.94;5028609;28;20179;-70
2022/08/19 08:34:13;;;;;;;19.10;17.10;;;;;;;23.86;56.08;97149.03;5029962;28;20187;-70
2022/08/19 08:36:44;;;;;;;25.63;17.27;;;;;;;23.84;56.52;97148.44;5029497;28;20446;-69
2022/08/19 08:39:12;;;;;;;19.00;17.00;;;;;;;23.80;56.75;97147.31;5011988;28;20463;-70
2022/08/19 08:41:49;;;;;;;19.87;17.67;;;;;;;23.78;56.62;97155.56;5037913;28;20450;-70
2022/08/19 08:44:22;;;;;;;20.77;17.63;;;;;;;23.76;56.65;97144.28;5030090;28;20430;-70
2022/08/19 08:46:59;;;;;;;23.83;18.67;;;;;;;23.74;56.89;97152.56;5023170;28;20451;-70
2022/08/19 08:49:31;;;;;;;20.40;17.53;;;;;;;23.74;56.90;97149.09;5029431;28;20441;-70
2022/08/19 08:52:04;;;;;;;22.90;17.90;;;;;;;23.74;56.98;97141.84;5013284;28;20496;-70
2022/08/19 08:54:35;;;;;;;23.90;17.10;;;;;;;23.77;56.74;97141.38;5023243;28;20460;-70
2022/08/19 08:57:11;;;;;;;21.17;17.53;;;;;;;23.81;56.59;97144.38;5028726;28;20434;-70
2022/08/19 08:59:38;;;;;;;20.70;18.33;;;;;;;23.78;56.48;97151.03;5023435;28;20423;-71
2022/08/19 09:02:04;;;;;;;20.30;18.10;;;;;;;23.82;56.90;97147.91;5031139;28;20442;-71
2022/08/19 09:04:29;;;;;;;21.03;18.07;;;;;;;23.87;57.24;97147.97;5029855;28;20889;-71
2022/08/19 09:07:00;;;;;;;22.63;17.67;;;;;;;23.87;57.16;97151.47;5027350;28;20190;-70
2022/08/19 09:09:35;;;;;;;21.07;18.67;;;;;;;23.89;57.21;97151.22;5030438;28;20183;-71
2022/08/19 09:12:14;;;;;;;18.63;16.63;;;;;;;23.89;56.76;97151.22;5023755;28;20457;-70
2022/08/19 09:14:47;;;;;;;22.53;17.27;;;;;;;23.89;57.04;97156.56;5031721;28;20483;-70
2022/08/19 09:17:13;;;;;;;20.43;16.87;;;;;;;23.87;56.84;97158.66;5029287;28;20521;-71
2022/08/19 09:20:16;;;;;;;19.80;17.70;;;;;;;23.88;57.10;97158.41;5031015;28;21009;-70
2022/08/19 09:22:43;;;;;;;18.10;16.30;;;;;;;23.95;56.88;97166.31;5016346;28;20582;-71
2022/08/19 09:25:11;;;;;;;26.00;19.57;;;;;;;23.97;56.86;97153.53;5031399;28;20514;-71
2022/08/19 09:27:38;;;;;;;19.20;17.20;;;;;;;23.99;56.42;97156.78;5035399;28;20423;-69
2022/08/19 09:30:07;;;;;;;20.03;17.03;;;;;;;24.02;56.66;97161.66;5029214;28;20423;-72
2022/08/19 09:32:32;;;;;;;18.03;16.00;;;;;;;24.02;56.65;97159.00;5028291;28;20493;-71
2022/08/19 09:35:00;;;;;;;19.10;15.40;;;;;;;24.06;56.72;97157.47;5030794;28;20518;-70
2022/08/19 09:37:26;;;;;;;19.43;15.93;;;;;;;24.14;56.36;97158.91;5028402;28;20196;-70
2022/08/19 09:39:52;;;;;;;21.73;17.60;;;;;;;24.18;56.50;97154.72;5030588;28;20891;-70
2022/08/19 09:42:18;;;;;;;21.53;17.70;;;;;;;24.22;55.94;97155.03;5037412;28;20454;-70
2022/08/19 09:44:44;;;;;;;18.20;15.57;;;;;;;24.26;55.76;97161.53;5016459;28;20427;-71
2022/08/19 09:47:11;;;;;;;23.20;15.67;;;;;;;24.22;55.98;97155.03;5031147;28;20233;-71
2022/08/19 09:49:37;;;;;;;20.17;15.63;;;;;;;24.23;56.17;97162.84;5034044;28;20430;-71
2022/08/19 09:52:03;;;;;;;16.97;15.27;;;;;;;24.27;56.17;97162.34;5034271;28;20450;-71
2022/08/19 09:54:29;;;;;;;16.30;14.60;;;;;;;24.27;56.23;97163.16;5037491;28;20521;-72
2022/08/19 09:56:55;;;;;;;24.67;15.70;;;;;;;24.28;55.85;97170.16;5050721;28;20192;-71
2022/08/19 09:59:21;;;;;;;16.37;14.67;;;;;;;24.31;56.08;97175.03;5041079;28;20207;-70
2022/08/19 10:01:46;;;;;;;16.47;14.77;;;;;;;24.29;56.12;97179.81;5000203;28;20786;-70
2022/08/19 10:04:12;;;;;;;16.70;13.10;;;;;;;24.33;55.88;97177.44;5032896;28;20188;-71
2022/08/19 10:06:39;;;;;;;15.60;14.00;;;;;;;24.35;55.89;97170.00;5032835;28;20208;-70
2022/08/19 10:09:10;;;;;;;22.20;15.23;;;;;;;24.36;56.24;97168.94;5032837;28;20240;-71
2022/08/19 10:11:37;;;;;;;16.00;12.93;;;;;;;24.33;55.87;97167.53;5041370;28;20849;-71
2022/08/19 10:14:05;;;;;;;21.33;12.80;;;;;;;24.35;55.91;97170.00;5032776;28;20438;-70
2022/08/19 10:16:31;;;;;;;21.47;13.63;;;;;;;24.35;55.84;97175.34;5025146;28;20422;-71
2022/08/19 10:18:57;;;;;;;14.97;13.37;;;;;;;24.39;55.44;97166.59;5032732;28;21039;-70
2022/08/19 10:21:25;;;;;;;14.63;13.10;;;;;;;24.39;55.45;97171.13;5041417;28;20210;-71
2022/08/19 10:23:53;;;;;;;17.53;12.93;;;;;;;24.43;55.71;97172.25;5037331;28;20281;-71
2022/08/19 10:26:28;;;;;;;13.60;12.20;;;;;;;24.44;55.55;97163.19;5030297;28;21112;-71
2022/08/19 10:28:54;;;;;;;16.40;14.53;;;;;;;24.47;55.65;97169.91;5033837;28;20871;-70
2022/08/19 10:31:27;;;;;;;15.73;13.30;;;;;;;24.50;55.23;97161.38;5032269;28;20521;-71
2022/08/19 10:33:57;;;;;;;16.03;13.00;;;;;;;24.52;55.04;97170.00;5033746;28;20226;-71
2022/08/19 10:36:26;;;;;;;14.73;13.13;;;;;;;24.56;55.38;97164.97;5032871;28;20449;-70
2022/08/19 10:38:53;;;;;;;15.20;12.20;;;;;;;24.59;55.41;97159.91;5032987;28;20450;-72
2022/08/19 10:41:22;;;;;;;12.73;11.43;;;;;;;24.63;54.63;97153.03;5032125;28;20438;-70
2022/08/19 10:43:54;;;;;;;13.90;12.47;;;;;;;24.64;55.12;97151.97;5032656;28;20847;-70
2022/08/19 10:46:22;;;;;;;12.90;11.60;;;;;;;24.69;55.06;97151.28;5020254;28;20435;-72
2022/08/19 10:48:48;;;;;;;17.63;12.63;;;;;;;24.68;55.13;97153.13;5032369;28;20454;-70
2022/08/19 10:53:58;;;;;;;13.10;11.90;;;;;;;24.71;54.97;97153.69;5041543;28;20549;-71
2022/08/19 10:59:09;;;;;;;12.87;11.30;;;;;;;24.68;54.79;97147.75;5031476;28;20476;-72
2022/08/19 11:01:35;;;;;;;11.17;10.03;;;;;;;24.69;54.05;97160.13;5033428;28;20415;-71
2022/08/19 11:04:03;;;;;;;16.30;10.40;;;;;;;24.72;54.24;97158.00;5032581;28;20499;-72
2022/08/19 11:06:29;;;;;;;12.23;10.80;;;;;;;24.63;54.09;97157.59;5029114;28;20458;-70
2022/08/19 11:08:55;;;;;;;12.73;11.30;;;;;;;24.65;53.80;97153.59;5032122;28;20478;-71
2022/08/19 11:11:21;;;;;;;18.53;10.93;;;;;;;24.71;53.53;97151.00;5032937;28;20427;-70
2022/08/19 11:13:49;;;;;;;11.63;10.53;;;;;;;24.76;53.49;97153.78;5031742;28;20203;-71
2022/08/19 11:16:21;;;;;;;16.20;9.93;;;;;;;24.80;53.67;97149.56;5026272;28;20919;-72
2022/08/19 11:18:54;;;;;;;11.27;10.17;;;;;;;24.83;53.60;97149.06;5032246;28;20973;-71
2022/08/19 11:21:27;;;;;;;11.00;9.00;;;;;;;24.87;53.75;97155.56;5040283;28;20436;-71
2022/08/19 11:23:56;;;;;;;10.73;8.73;;;;;;;24.93;54.17;97148.41;5032978;28;20474;-71
2022/08/19 11:26:22;;;;;;;10.73;9.63;;;;;;;24.98;53.75;97145.81;5031802;28;20525;-71
2022/08/19 11:28:48;;;;;;;12.00;9.63;;;;;;;25.02;53.92;97146.09;5032852;28;20437;-71
2022/08/19 11:31:16;;;;;;;17.60;10.00;;;;;;;25.09;53.24;97147.56;5032660;28;20517;-71
2022/08/19 11:33:42;;;;;;;11.10;9.90;;;;;;;25.17;53.15;97153.53;5031264;28;20207;-70
2022/08/19 11:36:08;;;;;;;10.40;9.30;;;;;;;25.21;53.02;97154.69;5031634;28;20446;-71
2022/08/19 11:38:35;;;;;;;13.40;10.17;;;;;;;25.25;52.16;97145.09;5028279;28;20215;-71